Time;durP1;ratioP1;P1;durP2;ratioP2;P2;SDS_P1;SDS_P2;PMS_P1;PMS_P2;Temp;Humidity;BMP_temperature;BMP_pressure;BME280_temperature;BME280_humidity;BME280_pressure;Samples;Min_cycle;Max_cycle;Signal;HPM_P1;HPM_P2
2021/12/16 00:01:47;;;;;;;25.10;15.88;;;12.80;62.30;;;;;;6122382;23;20013;-56
2021/12/16 00:31:47;;;;;;;28.25;18.00;;;12.70;62.30;;;;;;6122634;23;20451;-55
2021/12/16 00:34:13;;;;;;;;;;;12.70;62.30;;;;;;6115659;23;20412;-55
2021/12/16 00:36:42;;;;;;;31.05;18.30;;;12.70;62.40;;;;;;6115662;23;19901;-57
2021/12/16 00:39:16;;;;;;;29.13;18.98;;;12.70;62.20;;;;;;6113274;23;20655;-56
2021/12/16 00:41:45;;;;;;;28.60;18.27;;;12.70;62.20;;;;;;6113045;23;20506;-55
2021/12/16 00:46:58;;;;;;;;;;;;;;;;;;;;;
2021/12/16 00:54:29;;;;;;;31.70;18.95;;;12.60;62.40;;;;;;6124068;23;20021;-57
2021/12/16 00:57:01;;;;;;;30.17;18.88;;;12.60;62.50;;;;;;6114603;23;19997;-53
2021/12/16 00:59:32;;;;;;;30.38;19.02;;;12.70;62.60;;;;;;6113282;23;20021;-56
2021/12/16 01:02:55;;;;;;;29.65;18.92;;;12.60;62.60;;;;;;6113248;23;20000;-55
2021/12/16 01:40:19;;;;;;;29.70;17.38;;;12.50;62.70;;;;;;6123801;23;20336;-56
2021/12/16 01:50:52;;;;;;;31.63;18.63;;;12.50;62.90;;;;;;6100541;23;20428;-55
2021/12/16 01:56:02;;;;;;;27.95;17.77;;;12.40;62.90;;;;;;6125759;23;20006;-55
2021/12/16 01:58:31;;;;;;;37.90;19.45;;;12.50;63.00;;;;;;6114082;23;20002;-56
2021/12/16 02:01:27;;;;;;;29.23;17.40;;;12.40;62.90;;;;;;6114154;23;20006;-56
2021/12/16 02:04:00;;;;;;;31.70;17.73;;;12.40;63.00;;;;;;6126226;23;20548;-52
2021/12/16 02:09:36;;;;;;;48.00;27.05;;;12.50;63.00;;;;;;6124428;23;20018;-54
2021/12/16 02:28:52;;;;;;;;;;;;;;;;;;;;;
2021/12/16 02:36:37;;;;;;;32.85;20.15;;;12.40;63.10;;;;;;6125203;23;20012;-56
2021/12/16 02:39:10;;;;;;;35.22;20.02;;;12.40;63.10;;;;;;6112760;23;20033;-55
2021/12/16 02:41:40;;;;;;;36.47;21.30;;;12.40;63.10;;;;;;6122853;23;20761;-55
2021/12/16 02:44:15;;;;;;;39.38;20.58;;;12.40;63.10;;;;;;6116926;23;20006;-56
2021/12/16 02:49:29;;;;;;;33.78;20.85;;;12.40;63.10;;;;;;6124977;23;20013;-55
2021/12/16 02:51:57;;;;;;;30.88;18.45;;;12.40;63.10;;;;;;6113556;23;20009;-54
2021/12/16 02:54:25;;;;;;;33.95;20.10;;;12.40;63.10;;;;;;6113566;23;20026;-52
2021/12/16 02:56:52;;;;;;;39.53;21.27;;;12.40;63.10;;;;;;6115505;23;20002;-55
2021/12/16 02:59:22;;;;;;;35.60;19.10;;;12.40;63.10;;;;;;6114779;23;20005;-56
2021/12/16 03:01:52;;;;;;;31.45;19.63;;;12.40;63.10;;;;;;6113430;23;20432;-57
2021/12/16 03:04:20;;;;;;;39.35;21.45;;;12.40;63.10;;;;;;6113455;23;20002;-57
2021/12/16 03:06:50;;;;;;;34.08;20.30;;;12.40;63.00;;;;;;6113855;23;20002;-51
2021/12/16 03:09:26;;;;;;;35.67;20.55;;;12.40;63.00;;;;;;6113958;23;20025;-57
2021/12/16 03:12:31;;;;;;;32.05;19.42;;;12.40;63.00;;;;;;6115159;23;20010;-55
2021/12/16 03:14:54;;;;;;;37.78;20.95;;;12.40;62.90;;;;;;6114934;23;20013;-54
2021/12/16 03:17:29;;;;;;;39.73;20.43;;;12.40;62.90;;;;;;6112123;23;20021;-55
2021/12/16 03:25:35;;;;;;;38.53;21.33;;;12.40;62.80;;;;;;6124494;23;20005;-54
2021/12/16 03:38:56;;;;;;;38.33;21.20;;;12.40;62.70;;;;;;6123776;23;20224;-53
2021/12/16 03:41:24;;;;;;;40.63;21.48;;;12.50;62.80;;;;;;6114740;23;20064;-54
2021/12/16 03:43:51;;;;;;;39.30;23.02;;;12.40;62.80;;;;;;6088221;23;20017;-52
2021/12/16 03:46:27;;;;;;;44.38;23.00;;;12.40;62.80;;;;;;6113469;23;20002;-55
2021/12/16 03:49:17;;;;;;;41.15;23.02;;;12.40;62.80;;;;;;6123052;23;20028;-54
2021/12/16 03:51:52;;;;;;;44.45;23.73;;;12.40;62.90;;;;;;6124159;23;20002;-54
2021/12/16 03:54:31;;;;;;;41.25;22.20;;;12.40;62.90;;;;;;6111928;23;20308;-55
2021/12/16 03:57:02;;;;;;;45.78;24.15;;;12.40;62.90;;;;;;6124708;23;20005;-55
2021/12/16 03:59:31;;;;;;;49.15;25.77;;;12.50;63.00;;;;;;6113824;23;20013;-55
2021/12/16 04:01:59;;;;;;;50.10;25.75;;;12.40;63.00;;;;;;6112724;23;20016;-57
2021/12/16 04:04:26;;;;;;;52.00;27.35;;;12.40;63.10;;;;;;6089729;23;20010;-56
2021/12/16 04:06:53;;;;;;;47.95;26.98;;;12.40;63.10;;;;;;6114969;23;20002;-56
2021/12/16 04:09:19;;;;;;;49.80;27.23;;;12.40;63.20;;;;;;6113165;23;20029;-52
2021/12/16 04:11:56;;;;;;;48.25;26.48;;;12.40;63.30;;;;;;6114612;23;20427;-55
2021/12/16 04:14:22;;;;;;;50.38;26.40;;;12.40;63.30;;;;;;6121681;23;20451;-54
2021/12/16 04:16:53;;;;;;;52.75;27.73;;;12.40;63.40;;;;;;6112171;23;20006;-52
2021/12/16 04:19:23;;;;;;;50.83;27.60;;;12.40;63.50;;;;;;6111061;23;20010;-55
2021/12/16 04:22:15;;;;;;;51.58;28.15;;;12.40;63.50;;;;;;6114557;23;20442;-55
2021/12/16 04:24:42;;;;;;;54.28;28.85;;;12.40;63.70;;;;;;6124886;23;20009;-54
2021/12/16 04:27:09;;;;;;;58.28;30.17;;;12.40;63.60;;;;;;6112368;23;20019;-54
2021/12/16 04:29:36;;;;;;;56.88;28.77;;;12.50;63.70;;;;;;6113111;23;20005;-52
2021/12/16 04:32:04;;;;;;;52.60;28.67;;;12.40;63.70;;;;;;6112337;23;20002;-53
2021/12/16 04:34:30;;;;;;;54.08;27.85;;;12.40;63.70;;;;;;6114540;23;20006;-55
2021/12/16 04:36:57;;;;;;;54.47;28.50;;;12.40;63.70;;;;;;6115204;23;20328;-54
2021/12/16 04:39:26;;;;;;;60.03;28.15;;;12.40;63.70;;;;;;6113537;23;20319;-54
2021/12/16 04:41:54;;;;;;;59.80;29.77;;;12.40;63.80;;;;;;6113941;23;20005;-55
2021/12/16 04:44:23;;;;;;;59.70;28.45;;;12.40;63.80;;;;;;6114097;23;20332;-54
2021/12/16 04:46:50;;;;;;;57.10;29.38;;;12.40;63.90;;;;;;6110887;23;20002;-55
2021/12/16 04:49:17;;;;;;;54.00;29.83;;;12.40;63.90;;;;;;6108452;23;20001;-53
2021/12/16 04:51:47;;;;;;;59.50;31.13;;;12.40;64.00;;;;;;6113667;23;20006;-54
2021/12/16 04:54:17;;;;;;;55.63;30.10;;;12.40;64.10;;;;;;6113524;23;20024;-56
2021/12/16 04:56:43;;;;;;;58.25;31.83;;;12.40;64.20;;;;;;6115163;23;20013;-53
2021/12/16 04:59:13;;;;;;;69.88;33.28;;;12.40;64.20;;;;;;6110865;23;20006;-57
2021/12/16 05:01:42;;;;;;;64.72;33.10;;;12.50;64.30;;;;;;6113565;23;20002;-57
2021/12/16 05:04:09;;;;;;;61.30;32.60;;;12.50;64.40;;;;;;6116835;23;20006;-52
2021/12/16 05:06:36;;;;;;;59.85;32.28;;;12.50;64.50;;;;;;6116938;23;20463;-55
2021/12/16 05:09:05;;;;;;;57.05;30.95;;;12.50;64.50;;;;;;6115783;23;20436;-55
2021/12/16 05:11:34;;;;;;;65.10;32.10;;;12.50;64.50;;;;;;6116338;23;20006;-55
2021/12/16 05:14:02;;;;;;;65.30;32.83;;;12.50;64.50;;;;;;6112227;23;20002;-56
2021/12/16 05:16:29;;;;;;;71.50;34.10;;;12.50;64.50;;;;;;6106554;23;20694;-56
2021/12/16 05:18:56;;;;;;;70.80;35.45;;;12.50;64.60;;;;;;6112104;23;20013;-52
2021/12/16 05:21:48;;;;;;;66.25;33.70;;;12.50;64.60;;;;;;6113955;23;20010;-58
2021/12/16 05:24:28;;;;;;;64.43;31.15;;;12.50;64.60;;;;;;6114754;23;20016;-54
2021/12/16 05:26:59;;;;;;;61.38;29.92;;;12.50;64.60;;;;;;6124192;23;20002;-57
2021/12/16 05:29:26;;;;;;;59.83;30.83;;;12.50;64.70;;;;;;6120305;23;20006;-53
2021/12/16 05:31:53;;;;;;;63.88;33.25;;;12.50;64.70;;;;;;6114164;23;20002;-56
2021/12/16 05:34:20;;;;;;;61.38;32.30;;;12.50;64.90;;;;;;6116290;23;20009;-55
2021/12/16 05:36:46;;;;;;;61.03;31.77;;;12.50;65.00;;;;;;6115656;23;20420;-56
2021/12/16 05:39:15;;;;;;;72.18;34.05;;;12.50;65.00;;;;;;6115550;23;20009;-53
2021/12/16 05:41:42;;;;;;;65.13;33.45;;;12.40;65.00;;;;;;6115235;23;20384;-55
2021/12/16 05:44:08;;;;;;;58.72;30.83;;;12.40;65.00;;;;;;6114075;23;20006;-55
2021/12/16 05:46:37;;;;;;;58.22;31.40;;;12.40;65.00;;;;;;6112570;23;20072;-56
2021/12/16 05:49:07;;;;;;;65.85;29.60;;;12.40;65.00;;;;;;6114481;23;20010;-55
2021/12/16 05:51:36;;;;;;;60.25;29.50;;;12.40;64.90;;;;;;6116384;23;20002;-55
2021/12/16 05:54:04;;;;;;;57.28;29.63;;;12.40;64.90;;;;;;6116983;23;20231;-56
2021/12/16 05:56:30;;;;;;;64.65;31.73;;;12.40;64.90;;;;;;6115444;23;20006;-54
2021/12/16 05:58:57;;;;;;;57.28;29.23;;;12.40;64.80;;;;;;6113683;23;20006;-57
2021/12/16 06:01:29;;;;;;;61.08;30.88;;;12.40;64.80;;;;;;6112518;23;20318;-57
2021/12/16 06:03:56;;;;;;;60.58;30.02;;;12.40;64.60;;;;;;6124657;23;20014;-55
2021/12/16 06:06:23;;;;;;;64.78;31.95;;;12.40;64.50;;;;;;6115680;23;20247;-55
2021/12/16 06:08:50;;;;;;;61.28;29.70;;;12.30;64.30;;;;;;6114722;23;20025;-55
2021/12/16 06:11:24;;;;;;;66.38;32.00;;;12.30;64.30;;;;;;6113535;23;20013;-54
2021/12/16 06:27:36;;;;;;;60.25;30.80;;;12.20;64.20;;;;;;6125028;23;20029;-55
2021/12/16 06:30:06;;;;;;;65.20;31.88;;;12.20;64.40;;;;;;6115616;23;19998;-54
2021/12/16 06:32:32;;;;;;;59.13;31.35;;;12.10;64.60;;;;;;6096930;23;20033;-54
2021/12/16 06:34:59;;;;;;;62.17;30.85;;;12.10;64.70;;;;;;6114566;23;20466;-54
2021/12/16 06:37:25;;;;;;;59.53;31.33;;;12.10;64.80;;;;;;6114410;23;20432;-54
2021/12/16 06:39:52;;;;;;;64.05;31.40;;;12.10;64.90;;;;;;6114620;23;20047;-55
2021/12/16 06:42:19;;;;;;;71.80;31.40;;;12.10;64.90;;;;;;6114506;23;20024;-55
2021/12/16 06:44:56;;;;;;;64.65;30.42;;;12.10;65.00;;;;;;6114631;23;20006;-55
2021/12/16 06:47:32;;;;;;;61.58;32.08;;;12.10;65.10;;;;;;6122056;23;19994;-55
2021/12/16 06:49:58;;;;;;;63.65;31.75;;;12.10;65.20;;;;;;6111534;23;20060;-54
2021/12/16 06:52:32;;;;;;;63.53;30.73;;;12.10;65.00;;;;;;6115129;23;20336;-54
2021/12/16 06:55:15;;;;;;;;;;;12.10;65.00;;;;;;6123291;23;19998;-55
2021/12/16 06:57:51;;;;;;;57.58;29.27;;;12.10;65.90;;;;;;6113930;23;20201;-54
2021/12/16 07:00:29;;;;;;;56.97;28.70;;;12.10;64.90;;;;;;6112941;23;20029;-54
2021/12/16 07:03:02;;;;;;;59.78;27.33;;;12.10;65.00;;;;;;6107254;23;20002;-52
2021/12/16 07:05:35;;;;;;;58.42;29.08;;;12.10;65.10;;;;;;6122328;23;20021;-55
2021/12/16 07:08:03;;;;;;;55.58;29.63;;;12.10;65.10;;;;;;6114011;23;20009;-55
2021/12/16 07:14:00;;;;;;;59.10;28.10;;;12.10;65.30;;;;;;6126247;23;20012;-53
2021/12/16 07:16:28;;;;;;;55.67;29.23;;;12.10;65.20;;;;;;6122121;23;19997;-55
2021/12/16 07:18:56;;;;;;;55.97;28.70;;;12.10;65.20;;;;;;6114413;23;20005;-56
2021/12/16 07:21:23;;;;;;;56.63;30.30;;;12.10;65.20;;;;;;6115372;23;19998;-56
2021/12/16 07:23:50;;;;;;;56.97;30.13;;;12.10;65.20;;;;;;6114347;23;19999;-53
2021/12/16 07:26:17;;;;;;;59.38;29.55;;;12.10;65.30;;;;;;6113169;23;20005;-53
2021/12/16 07:28:43;;;;;;;50.22;27.48;;;12.10;65.20;;;;;;6112419;23;20013;-57
2021/12/16 07:31:09;;;;;;;60.30;29.20;;;12.10;65.20;;;;;;6113516;23;20005;-55
2021/12/16 07:33:35;;;;;;;61.65;30.23;;;12.10;65.30;;;;;;6137921;23;20493;-56
2021/12/16 07:36:02;;;;;;;57.15;29.40;;;12.10;65.30;;;;;;6114503;23;20436;-51
2021/12/16 07:38:30;;;;;;;55.83;28.90;;;12.10;65.30;;;;;;6114911;23;20431;-52
2021/12/16 07:40:57;;;;;;;53.25;28.17;;;12.10;65.10;;;;;;6114155;23;20017;-56
2021/12/16 07:43:40;;;;;;;57.92;29.27;;;12.10;65.10;;;;;;6115253;23;20006;-56
2021/12/16 07:46:08;;;;;;;54.47;29.08;;;12.10;65.00;;;;;;6123436;23;20013;-56
2021/12/16 07:48:34;;;;;;;56.30;28.75;;;12.00;64.90;;;;;;6114563;23;20002;-55
2021/12/16 07:51:03;;;;;;;58.33;29.20;;;12.00;64.90;;;;;;6113866;23;20005;-56
2021/12/16 07:53:29;;;;;;;65.57;32.35;;;12.00;65.00;;;;;;6115105;23;20010;-54
2021/12/16 07:55:56;;;;;;;58.50;31.15;;;12.00;65.10;;;;;;6115370;23;20053;-56
2021/12/16 07:58:23;;;;;;;62.75;31.38;;;12.00;65.20;;;;;;6114150;23;20013;-53
2021/12/16 08:00:51;;;;;;;68.18;33.20;;;12.00;65.20;;;;;;6114029;23;20033;-53
2021/12/16 08:03:17;;;;;;;68.93;34.53;;;12.00;65.30;;;;;;6113941;23;20326;-57
2021/12/16 08:05:53;;;;;;;72.32;34.53;;;12.00;65.30;;;;;;6114486;23;20001;-56
2021/12/16 08:08:19;;;;;;;67.55;33.50;;;12.00;65.30;;;;;;6112805;23;20017;-55
2021/12/16 08:10:46;;;;;;;69.00;33.78;;;12.10;65.30;;;;;;6123001;23;20020;-56
2021/12/16 08:13:13;;;;;;;69.05;31.50;;;12.00;65.20;;;;;;6111449;23;20017;-54
2021/12/16 08:15:41;;;;;;;64.55;34.38;;;12.00;65.20;;;;;;6113299;23;20005;-56
2021/12/16 08:18:07;;;;;;;70.55;34.42;;;12.10;65.10;;;;;;6109035;23;20013;-55
2021/12/16 08:20:34;;;;;;;62.53;32.03;;;12.00;65.00;;;;;;6114366;23;20013;-58
2021/12/16 08:23:00;;;;;;;64.25;32.50;;;12.00;65.00;;;;;;6113677;23;20098;-55
2021/12/16 08:25:29;;;;;;;59.90;31.25;;;12.00;64.90;;;;;;6114086;23;20324;-53
2021/12/16 08:27:57;;;;;;;64.53;31.05;;;12.00;64.80;;;;;;6113082;23;20013;-57
2021/12/16 08:30:28;;;;;;;65.47;31.67;;;11.90;64.80;;;;;;6114606;23;20006;-51
2021/12/16 08:32:59;;;;;;;72.28;31.27;;;11.90;64.90;;;;;;6111170;23;20025;-57
2021/12/16 08:35:26;;;;;;;60.75;30.85;;;11.90;65.00;;;;;;6114934;23;20006;-54
2021/12/16 08:37:52;;;;;;;67.82;31.27;;;12.00;65.30;;;;;;6116795;23;20009;-54
2021/12/16 08:40:21;;;;;;;63.58;30.52;;;11.90;65.30;;;;;;6116937;23;20006;-54
2021/12/16 08:42:47;;;;;;;65.85;32.22;;;11.90;65.40;;;;;;6114786;23;20367;-55
2021/12/16 08:45:18;;;;;;;63.60;34.08;;;12.00;65.60;;;;;;6114840;23;20272;-54
2021/12/16 08:47:45;;;;;;;66.50;32.22;;;12.00;65.60;;;;;;6111395;23;20033;-52
2021/12/16 08:50:15;;;;;;;68.18;33.08;;;12.00;65.60;;;;;;6112961;23;20033;-52
2021/12/16 08:52:41;;;;;;;68.00;31.63;;;12.00;65.70;;;;;;6115146;23;20261;-52
2021/12/16 08:55:09;;;;;;;65.95;33.33;;;12.00;65.60;;;;;;6115190;23;19998;-54
2021/12/16 08:57:35;;;;;;;62.45;31.13;;;12.00;65.50;;;;;;6116780;23;20403;-55
2021/12/16 09:00:08;;;;;;;69.28;32.47;;;12.00;65.40;;;;;;6116601;23;20006;-55
2021/12/16 09:02:35;;;;;;;71.28;33.88;;;12.00;65.40;;;;;;6114346;23;20010;-52
2021/12/16 09:05:01;;;;;;;75.90;34.45;;;12.00;65.30;;;;;;6138115;23;20006;-53
2021/12/16 09:07:27;;;;;;;74.93;34.25;;;12.00;65.40;;;;;;6116144;23;20021;-55
2021/12/16 09:09:54;;;;;;;73.97;35.72;;;12.00;65.50;;;;;;6114265;23;20021;-49
2021/12/16 09:15:05;;;;;;;69.70;34.17;;;12.00;65.80;;;;;;6126338;23;20010;-53
2021/12/16 09:17:31;;;;;;;83.50;37.83;;;12.00;65.90;;;;;;6114197;23;20010;-52
2021/12/16 09:19:57;;;;;;;81.47;38.42;;;12.00;66.00;;;;;;6116713;23;20446;-51
2021/12/16 09:22:25;;;;;;;80.13;36.95;;;12.00;66.10;;;;;;6116616;23;20002;-50
2021/12/16 09:24:53;;;;;;;83.93;37.83;;;12.00;66.30;;;;;;6116177;23;20017;-51
2021/12/16 09:27:20;;;;;;;84.18;38.88;;;12.00;66.40;;;;;;6115780;23;20009;-52
2021/12/16 09:29:47;;;;;;;82.22;39.35;;;12.00;66.60;;;;;;6113564;23;20006;-50
2021/12/16 09:32:13;;;;;;;94.10;40.05;;;12.00;66.70;;;;;;6113013;23;20408;-53
2021/12/16 09:34:41;;;;;;;84.57;40.97;;;12.00;67.00;;;;;;6116683;23;20021;-52
2021/12/16 09:37:07;;;;;;;87.28;40.60;;;12.00;67.20;;;;;;6113976;23;20009;-56
2021/12/16 09:39:34;;;;;;;80.40;39.05;;;12.10;67.40;;;;;;6109442;23;20439;-55
2021/12/16 09:42:01;;;;;;;76.07;36.97;;;12.10;67.40;;;;;;6109623;23;20013;-55
2021/12/16 09:44:29;;;;;;;80.40;38.53;;;12.10;67.40;;;;;;6114976;23;20374;-55
2021/12/16 09:46:58;;;;;;;75.82;37.28;;;12.10;67.40;;;;;;6109459;23;20025;-52
2021/12/16 09:49:25;;;;;;;66.93;34.47;;;12.10;67.30;;;;;;6109297;23;20444;-54
2021/12/16 09:51:54;;;;;;;77.85;37.53;;;12.10;67.30;;;;;;6110155;23;20006;-53
2021/12/16 09:54:25;;;;;;;77.45;39.05;;;12.20;67.40;;;;;;6111631;23;20020;-54
2021/12/16 09:56:52;;;;;;;83.35;38.75;;;12.20;67.40;;;;;;6111528;23;20427;-53
2021/12/16 09:59:21;;;;;;;86.25;40.00;;;12.20;67.30;;;;;;6109325;23;20416;-55
2021/12/16 10:01:51;;;;;;;82.75;38.75;;;12.30;67.40;;;;;;6107753;23;20006;-55
2021/12/16 10:04:20;;;;;;;84.80;39.03;;;12.30;67.40;;;;;;6119897;23;20013;-56
2021/12/16 10:06:49;;;;;;;93.45;40.63;;;12.30;67.30;;;;;;6109551;23;20006;-54
2021/12/16 10:09:16;;;;;;;94.68;41.90;;;12.40;67.40;;;;;;6085790;23;20022;-56
2021/12/16 10:11:45;;;;;;;86.70;40.95;;;12.40;67.50;;;;;;6112839;23;20016;-55
2021/12/16 10:19:28;;;;;;;88.38;40.35;;;12.60;67.40;;;;;;6118260;23;20029;-53
2021/12/16 10:22:14;;;;;;;80.78;39.42;;;12.60;67.20;;;;;;6110824;23;20010;-53
2021/12/16 10:24:40;;;;;;;79.00;38.55;;;12.60;66.80;;;;;;6119868;23;20001;-52
2021/12/16 10:27:18;;;;;;;80.13;38.17;;;12.70;66.60;;;;;;6110846;23;20021;-55
2021/12/16 10:29:49;;;;;;;77.60;39.58;;;12.70;66.50;;;;;;6119051;23;20060;-51
2021/12/16 10:32:40;;;;;;;83.65;41.22;;;12.70;66.60;;;;;;6113303;23;20002;-52
2021/12/16 10:35:27;;;;;;;79.32;39.58;;;12.70;66.40;;;;;;6114971;23;20005;-54
2021/12/16 10:37:58;;;;;;;87.72;39.20;;;12.80;66.10;;;;;;6124132;23;20002;-55
2021/12/16 10:40:43;;;;;;;78.10;39.55;;;12.80;65.80;;;;;;6124764;23;20002;-57
2021/12/16 10:43:36;;;;;;;79.20;38.28;;;12.90;65.70;;;;;;6114034;23;20193;-53
2021/12/16 10:46:19;;;;;;;76.50;39.45;;;12.90;65.30;;;;;;6113940;23;20001;-55
2021/12/16 10:48:59;;;;;;;72.77;37.50;;;13.00;65.30;;;;;;6123803;23;20332;-56
2021/12/16 10:51:27;;;;;;;68.57;35.60;;;13.00;64.90;;;;;;6123905;23;20240;-55
2021/12/16 10:54:37;;;;;;;77.50;36.72;;;13.00;64.90;;;;;;6108846;23;20010;-53
2021/12/16 10:57:10;;;;;;;73.78;36.53;;;13.10;64.90;;;;;;6100761;23;20009;-56
2021/12/16 10:59:44;;;;;;;74.97;38.17;;;13.10;64.50;;;;;;6113024;23;20010;-54
2021/12/16 11:02:12;;;;;;;;;;;13.10;64.30;;;;;;6119363;23;20530;-53
2021/12/16 11:04:39;;;;;;;69.60;35.13;;;13.20;64.50;;;;;;6111352;23;19912;-53
2021/12/16 11:07:19;;;;;;;70.90;36.25;;;13.20;64.00;;;;;;6109093;23;20164;-51
2021/12/16 11:09:51;;;;;;;71.95;35.38;;;13.20;64.00;;;;;;6115404;23;20018;-54
2021/12/16 11:12:49;;;;;;;76.68;37.28;;;13.20;64.00;;;;;;6111167;23;20010;-55
2021/12/16 11:15:28;;;;;;;74.03;36.50;;;13.20;63.90;;;;;;6115239;23;20468;-54
2021/12/16 11:18:03;;;;;;;76.07;37.97;;;13.20;64.00;;;;;;6123093;23;20002;-54
2021/12/16 11:20:43;;;;;;;76.18;38.30;;;13.20;63.80;;;;;;6124539;23;20345;-55
2021/12/16 11:23:11;;;;;;;75.75;38.20;;;13.30;63.80;;;;;;6123921;23;20028;-57
2021/12/16 11:25:44;;;;;;;81.50;38.72;;;13.30;63.80;;;;;;6112965;23;20005;-55
2021/12/16 11:28:16;;;;;;;82.22;39.10;;;13.30;63.80;;;;;;6123412;23;19995;-52
2021/12/16 11:31:01;;;;;;;70.22;36.53;;;13.40;63.70;;;;;;6113545;23;20002;-54
2021/12/16 11:33:39;;;;;;;74.38;37.75;;;13.40;63.50;;;;;;6122438;23;20017;-53
2021/12/16 11:36:23;;;;;;;77.55;37.13;;;13.50;63.50;;;;;;6121697;23;20002;-52
2021/12/16 11:39:01;;;;;;;78.47;37.97;;;13.50;63.50;;;;;;6120511;23;20009;-55
2021/12/16 11:41:44;;;;;;;73.88;37.53;;;13.50;63.00;;;;;;6119019;23;20009;-55
2021/12/16 11:44:20;;;;;;;72.70;36.90;;;13.60;62.80;;;;;;6114304;23;20002;-55
2021/12/16 11:46:49;;;;;;;74.20;36.60;;;13.60;62.70;;;;;;6121818;23;20322;-55
2021/12/16 11:49:30;;;;;;;83.78;41.33;;;13.60;62.10;;;;;;6115161;23;20332;-54
2021/12/16 11:52:05;;;;;;;78.00;39.08;;;13.60;61.80;;;;;;6124448;23;20648;-54
2021/12/16 11:54:35;;;;;;;69.00;36.55;;;13.60;61.50;;;;;;6124421;23;20006;-53
2021/12/16 11:57:14;;;;;;;73.88;38.17;;;13.60;61.50;;;;;;6113758;23;20010;-55
2021/12/16 11:59:48;;;;;;;83.00;39.25;;;13.60;61.70;;;;;;6124858;23;20005;-50
2021/12/16 12:02:35;;;;;;;83.70;39.97;;;13.60;62.40;;;;;;6121318;23;20013;-55
2021/12/16 12:05:32;;;;;;;71.95;37.60;;;13.60;61.40;;;;;;6114214;23;20009;-54
2021/12/16 12:08:04;;;;;;;79.60;39.70;;;13.60;61.40;;;;;;6110206;23;20613;-55
2021/12/16 12:11:06;;;;;;;77.43;38.05;;;13.70;61.50;;;;;;6108358;23;20010;-55
2021/12/16 12:13:45;;;;;;;74.95;39.40;;;13.60;61.30;;;;;;6108474;23;20435;-56
2021/12/16 12:16:13;;;;;;;71.72;36.78;;;13.60;61.40;;;;;;6107530;23;20010;-53
2021/12/16 12:19:00;;;;;;;80.20;39.63;;;13.70;61.60;;;;;;6108419;23;20021;-56
2021/12/16 12:21:28;;;;;;;75.32;37.88;;;13.70;61.50;;;;;;6118141;23;20009;-55
2021/12/16 12:23:59;;;;;;;82.40;40.92;;;13.70;61.50;;;;;;6106828;23;20454;-54
2021/12/16 12:26:29;;;;;;;80.28;41.10;;;13.70;61.40;;;;;;6108893;23;20017;-54
2021/12/16 12:29:13;;;;;;;85.97;42.35;;;13.60;60.90;;;;;;6106970;23;20017;-52
2021/12/16 12:31:46;;;;;;;77.40;37.92;;;13.60;60.60;;;;;;6108381;23;20010;-53
2021/12/16 12:34:13;;;;;;;72.60;36.53;;;13.60;61.00;;;;;;6120134;23;19994;-52
2021/12/16 12:36:41;;;;;;;81.53;41.60;;;13.60;61.30;;;;;;6108695;23;20309;-57
2021/12/16 12:39:11;;;;;;;73.63;38.92;;;13.60;61.40;;;;;;6107302;23;20359;-53
2021/12/16 12:41:37;;;;;;;68.85;38.03;;;13.60;61.50;;;;;;6108217;23;20344;-53
2021/12/16 12:44:05;;;;;;;73.28;38.60;;;13.60;61.50;;;;;;6108810;23;20010;-53
2021/12/16 12:46:35;;;;;;;69.00;35.95;;;13.60;61.60;;;;;;6133380;23;20335;-55
2021/12/16 12:49:06;;;;;;;80.25;39.97;;;13.60;61.60;;;;;;6123879;23;20009;-55
2021/12/16 12:51:39;;;;;;;88.50;40.33;;;13.60;61.60;;;;;;6115730;23;20002;-54
2021/12/16 12:54:19;;;;;;;75.55;39.72;;;13.60;61.30;;;;;;6124936;23;20013;-51
2021/12/16 12:56:46;;;;;;;80.40;40.30;;;13.60;61.10;;;;;;6115036;23;19998;-55
2021/12/16 12:59:15;;;;;;;77.25;36.67;;;13.60;61.30;;;;;;6114639;23;20002;-56
2021/12/16 13:01:55;;;;;;;79.18;38.47;;;13.60;61.60;;;;;;6112664;23;20014;-55
2021/12/16 13:04:42;;;;;;;80.95;38.80;;;13.60;61.70;;;;;;6114595;23;20002;-54
2021/12/16 13:07:10;;;;;;;77.43;38.38;;;13.60;61.70;;;;;;6118719;23;20006;-53
2021/12/16 13:09:41;;;;;;;74.07;38.22;;;13.60;61.70;;;;;;6114939;23;20432;-52
2021/12/16 13:12:30;;;;;;;77.93;39.30;;;13.60;61.60;;;;;;6114018;23;20033;-53
2021/12/16 13:15:07;;;;;;;73.18;36.60;;;13.60;61.60;;;;;;6123961;23;20010;-57
2021/12/16 13:23:30;;;;;;;66.85;34.55;;;13.60;61.60;;;;;;6124563;23;20029;-55
2021/12/16 13:29:13;;;;;;;68.40;35.40;;;13.60;61.50;;;;;;6124807;23;20032;-55
2021/12/16 13:31:53;;;;;;;71.50;35.30;;;13.60;61.60;;;;;;6114713;23;20013;-57
2021/12/16 13:34:26;;;;;;;66.80;34.83;;;13.60;61.50;;;;;;6116219;23;20013;-53
2021/12/16 13:36:56;;;;;;;71.78;34.65;;;13.60;61.50;;;;;;6116697;23;20006;-55
2021/12/16 13:39:28;;;;;;;68.70;34.65;;;13.70;61.60;;;;;;6136985;23;20454;-53
2021/12/16 13:42:12;;;;;;;67.78;33.13;;;13.60;61.50;;;;;;6112890;23;20009;-53
2021/12/16 13:45:02;;;;;;;73.22;35.65;;;13.70;61.50;;;;;;6124940;23;20036;-53
2021/12/16 14:00:31;;;;;;;72.10;36.88;;;13.70;61.70;;;;;;6121152;23;20165;-53
2021/12/16 14:05:40;;;;;;;75.55;39.45;;;13.70;61.50;;;;;;6136216;23;20009;-54
2021/12/16 14:08:25;;;;;;;74.93;37.05;;;13.70;61.50;;;;;;6108875;23;20002;-55
2021/12/16 14:10:57;;;;;;;74.65;38.35;;;13.70;61.50;;;;;;6122843;23;20706;-52
2021/12/16 14:31:07;;;;;;;83.90;39.83;;;13.50;61.60;;;;;;6124784;23;19998;-54
2021/12/16 14:41:15;;;;;;;80.68;38.85;;;13.40;61.90;;;;;;6123181;23;20002;-51
2021/12/16 14:43:55;;;;;;;77.68;39.15;;;13.40;61.90;;;;;;6125242;23;20013;-54
2021/12/16 14:46:26;;;;;;;69.07;36.15;;;13.40;62.00;;;;;;6122047;23;20006;-54
2021/12/16 14:48:53;;;;;;;74.43;38.15;;;13.30;62.10;;;;;;6114773;23;19998;-52
2021/12/16 14:51:20;;;;;;;72.22;37.10;;;13.30;62.30;;;;;;6114483;23;20328;-53
2021/12/16 14:53:53;;;;;;;68.80;35.42;;;13.30;62.40;;;;;;6116071;23;20002;-51
2021/12/16 14:56:32;;;;;;;69.95;35.67;;;13.30;62.50;;;;;;6125185;23;20323;-54
2021/12/16 14:59:07;;;;;;;75.15;37.20;;;13.30;62.60;;;;;;6137569;23;20017;-56
2021/12/16 15:01:37;;;;;;;73.35;36.88;;;13.30;62.50;;;;;;6113838;23;20440;-54
2021/12/16 15:04:05;;;;;;;78.35;38.25;;;13.30;62.60;;;;;;6115560;23;20002;-55
2021/12/16 15:06:41;;;;;;;74.30;37.50;;;13.30;62.60;;;;;;6115543;23;19998;-53
2021/12/16 15:09:17;;;;;;;68.88;35.42;;;13.30;62.70;;;;;;6110846;23;20029;-55
2021/12/16 15:12:13;;;;;;;68.40;34.97;;;13.30;62.80;;;;;;6113224;23;20013;-53
2021/12/16 15:31:50;;;;;;;80.15;38.45;;;13.30;62.70;;;;;;6121695;23;20009;-55
2021/12/16 15:44:59;;;;;;;74.90;36.63;;;13.30;62.80;;;;;;6125034;23;20435;-55
2021/12/16 15:47:25;;;;;;;71.22;35.88;;;13.30;62.80;;;;;;6112540;23;20001;-53
2021/12/16 15:49:53;;;;;;;71.80;37.22;;;13.30;62.80;;;;;;6112762;23;20026;-56
2021/12/16 15:52:20;;;;;;;67.05;34.40;;;13.30;62.80;;;;;;6114949;23;20032;-52
2021/12/16 15:54:50;;;;;;;74.32;38.40;;;13.30;62.80;;;;;;6114948;23;20013;-55
2021/12/16 15:57:18;;;;;;;73.05;38.33;;;13.30;62.70;;;;;;6113124;23;20002;-55
2021/12/16 15:59:48;;;;;;;77.22;38.50;;;13.30;62.70;;;;;;6111495;23;20029;-55
2021/12/16 16:02:19;;;;;;;76.55;36.75;;;13.30;62.70;;;;;;6112396;23;20009;-52
2021/12/16 16:04:45;;;;;;;70.43;36.28;;;13.30;62.70;;;;;;6112365;23;20013;-54
2021/12/16 16:07:13;;;;;;;72.22;36.47;;;13.30;62.60;;;;;;6113920;23;20013;-54
2021/12/16 16:09:42;;;;;;;73.60;36.72;;;13.30;62.50;;;;;;6114609;23;20029;-51
2021/12/16 16:12:16;;;;;;;83.15;37.05;;;13.30;62.50;;;;;;6115062;23;20010;-55
2021/12/16 16:14:46;;;;;;;69.35;37.13;;;13.30;62.40;;;;;;6114379;23;20002;-56
2021/12/16 16:17:17;;;;;;;73.40;37.28;;;13.20;62.30;;;;;;6109262;23;20006;-53
2021/12/16 16:19:46;;;;;;;76.93;38.55;;;13.20;62.30;;;;;;6113529;23;20009;-56
2021/12/16 16:22:13;;;;;;;74.50;37.83;;;13.20;62.30;;;;;;6115122;23;20366;-55
2021/12/16 16:24:40;;;;;;;74.50;38.17;;;13.20;62.30;;;;;;6115025;23;20006;-57
2021/12/16 16:27:39;;;;;;;78.47;37.60;;;13.20;62.30;;;;;;6112870;23;19998;-53
2021/12/16 16:30:07;;;;;;;71.00;35.75;;;13.20;62.40;;;;;;6109345;23;20067;-57
2021/12/16 16:33:04;;;;;;;73.97;36.72;;;13.10;62.40;;;;;;6112299;23;20009;-53
2021/12/16 16:35:31;;;;;;;72.10;37.40;;;13.10;62.50;;;;;;6124034;23;20005;-52
2021/12/16 16:38:17;;;;;;;81.93;36.65;;;13.10;62.60;;;;;;6114014;23;20237;-52
2021/12/16 16:40:46;;;;;;;76.90;37.03;;;13.10;62.70;;;;;;6113052;23;20005;-55
2021/12/16 16:43:39;;;;;;;82.68;39.00;;;13.00;62.60;;;;;;6112329;23;20045;-54